Time;durP1;ratioP1;P1;durP2;ratioP2;P2;SDS_P1;SDS_P2;PMS_P1;PMS_P2;Temp;Humidity;BMP_temperature;BMP_pressure;BME280_temperature;BME280_humidity;BME280_pressure;Samples;Min_cycle;Max_cycle;Signal;HPM_P1;HPM_P2
2023/04/09 00:02:16;;;;;;;13.68;8.80;;;6.10;99.90;;;5.44;100.00;97892.66;5041367;28;20108;-38
2023/04/09 00:04:42;;;;;;;11.75;8.65;;;6.10;99.90;;;5.46;100.00;97896.13;5042692;28;20028;-38
2023/04/09 00:07:08;;;;;;;11.10;8.68;;;6.10;99.90;;;5.47;100.00;97894.38;5042089;28;20061;-39
2023/04/09 00:09:33;;;;;;;10.10;8.10;;;6.10;99.90;;;5.45;100.00;97897.00;5044115;28;20098;-38
2023/04/09 00:11:59;;;;;;;12.00;8.82;;;6.10;99.90;;;5.48;100.00;97896.13;5039094;28;20036;-38
2023/04/09 00:14:25;;;;;;;13.45;8.77;;;6.10;99.90;;;5.46;100.00;97896.13;5041871;28;20444;-38
2023/04/09 00:16:50;;;;;;;11.35;7.97;;;6.10;99.90;;;5.48;100.00;97891.75;5041945;28;20503;-39
2023/04/09 00:19:16;;;;;;;10.70;8.55;;;6.10;99.90;;;5.48;100.00;97890.88;5042507;28;20472;-38
2023/04/09 00:21:42;;;;;;;10.82;8.55;;;6.20;99.90;;;5.30;100.00;97863.13;5043757;28;20089;-39
2023/04/09 00:24:07;;;;;;;12.60;8.38;;;6.10;99.90;;;5.49;100.00;97884.75;5040788;28;20619;-39
2023/04/09 00:26:33;;;;;;;10.75;7.70;;;6.10;99.90;;;5.49;100.00;97889.97;5043679;28;20125;-38
2023/04/09 00:28:59;;;;;;;10.43;7.70;;;6.10;99.90;;;5.48;100.00;97889.13;5039950;28;20111;-38
2023/04/09 00:31:25;;;;;;;11.82;7.95;;;6.10;99.90;;;5.48;100.00;97888.28;5041822;28;20029;-39
2023/04/09 00:33:51;;;;;;;10.63;7.32;;;6.10;99.90;;;5.48;100.00;97889.13;5039615;28;20565;-38
2023/04/09 00:36:16;;;;;;;11.60;8.38;;;6.10;99.90;;;5.47;100.00;97887.41;5040937;28;20121;-39
2023/04/09 00:38:42;;;;;;;12.65;8.20;;;6.10;99.90;;;5.49;100.00;97882.13;5042387;28;20029;-39
2023/04/09 00:41:08;;;;;;;10.45;8.20;;;6.10;99.90;;;5.43;100.00;97875.22;5040801;28;20036;-39
2023/04/09 00:43:33;;;;;;;11.88;8.63;;;6.10;99.90;;;5.49;100.00;97885.63;5040782;28;20037;-38
2023/04/09 00:46:00;;;;;;;11.02;8.50;;;6.10;99.90;;;5.47;100.00;97881.28;5041235;28;20485;-39
2023/04/09 00:48:26;;;;;;;11.43;8.40;;;6.10;99.90;;;5.48;100.00;97880.41;5040798;28;20025;-38
2023/04/09 00:50:52;;;;;;;9.45;8.07;;;6.10;99.90;;;5.48;100.00;97877.81;5038500;28;20028;-39
2023/04/09 00:53:18;;;;;;;11.23;8.73;;;6.10;99.90;;;5.49;100.00;97879.53;5041984;28;20025;-39
2023/04/09 00:55:44;;;;;;;11.63;8.85;;;6.10;99.90;;;5.43;100.00;97866.50;5039691;28;20028;-38
2023/04/09 00:58:10;;;;;;;11.57;8.77;;;6.10;99.90;;;5.51;100.00;97877.78;5039480;28;20266;-39
2023/04/09 01:00:36;;;;;;;11.93;9.07;;;6.10;99.90;;;5.48;100.00;97875.19;5041537;28;20029;-39
2023/04/09 01:03:04;;;;;;;10.60;8.60;;;6.10;99.90;;;5.49;100.00;97885.63;5038217;28;20032;-39
2023/04/09 01:06:01;;;;;;;13.57;8.65;;;6.10;99.90;;;5.49;100.00;97876.91;5040051;28;20025;-38
2023/04/09 01:08:40;;;;;;;12.23;9.57;;;6.10;99.90;;;5.50;100.00;97881.25;5040033;28;20079;-38
2023/04/09 01:11:27;;;;;;;11.90;9.43;;;6.10;99.90;;;5.49;100.00;97871.66;5034164;28;20040;-38
2023/04/09 01:14:21;;;;;;;12.52;9.02;;;6.10;99.90;;;5.49;100.00;97880.41;5038021;28;20040;-38
2023/04/09 01:16:54;;;;;;;13.70;8.80;;;6.10;99.90;;;5.50;100.00;97870.81;5041578;28;20021;-39
2023/04/09 01:20:05;;;;;;;12.10;8.68;;;6.20;99.90;;;5.49;100.00;97877.78;5053888;28;20029;-39
2023/04/09 01:22:58;;;;;;;11.95;9.20;;;6.20;99.90;;;5.49;100.00;97872.56;4994087;28;20312;-38
2023/04/09 01:25:50;;;;;;;13.85;9.10;;;6.10;99.90;;;5.47;100.00;97873.44;5038299;28;20031;-38
2023/04/09 01:28:31;;;;;;;14.55;10.10;;;6.20;99.90;;;5.36;100.00;97863.06;5039228;28;20121;-38
2023/04/09 01:31:01;;;;;;;14.05;9.38;;;6.10;99.90;;;5.38;100.00;97871.75;5041420;28;20036;-39
2023/04/09 01:33:30;;;;;;;11.38;8.70;;;6.10;99.90;;;5.39;100.00;97876.13;5038506;28;20028;-38
2023/04/09 01:35:56;;;;;;;12.10;9.20;;;6.10;99.90;;;5.39;100.00;97876.13;5040060;28;20025;-38
2023/04/09 01:38:24;;;;;;;13.20;8.80;;;6.10;99.90;;;5.40;100.00;97871.75;5040994;28;20444;-39
2023/04/09 01:40:50;;;;;;;11.27;8.82;;;6.10;99.90;;;5.41;100.00;97876.97;5036994;28;20036;-39
2023/04/09 01:43:17;;;;;;;11.93;8.90;;;6.10;99.90;;;5.41;100.00;97874.38;5040614;28;20032;-38
2023/04/09 01:45:44;;;;;;;11.88;9.05;;;6.10;99.90;;;5.41;100.00;97882.22;5039582;28;20017;-38
2023/04/09 01:48:12;;;;;;;10.82;9.20;;;6.10;99.90;;;5.41;100.00;97879.59;5041859;28;20032;-38
2023/04/09 01:50:39;;;;;;;11.65;8.73;;;6.10;99.90;;;5.42;100.00;97881.34;5040564;28;20044;-39
2023/04/09 01:53:05;;;;;;;12.27;8.60;;;6.10;99.90;;;5.40;100.00;97866.53;5037437;28;20331;-38
2023/04/09 01:55:31;;;;;;;12.10;8.82;;;6.10;99.90;;;5.39;100.00;97865.66;5036274;28;20037;-38
2023/04/09 01:57:57;;;;;;;11.73;9.18;;;6.10;99.90;;;5.42;100.00;97873.50;5038964;28;20115;-38
2023/04/09 02:00:26;;;;;;;14.35;9.52;;;6.10;99.90;;;5.43;100.00;97876.97;5036298;28;20021;-39
2023/04/09 02:03:05;;;;;;;13.35;9.10;;;6.10;99.90;;;5.43;100.00;97875.22;5038049;28;20044;-39
2023/04/09 02:05:36;;;;;;;13.50;9.55;;;6.10;99.90;;;5.44;100.00;97873.50;5041452;28;20021;-39
2023/04/09 02:08:05;;;;;;;11.32;8.98;;;6.10;99.90;;;5.39;100.00;97860.44;5038821;28;20033;-38
2023/04/09 02:10:34;;;;;;;13.65;10.18;;;6.10;99.90;;;5.46;100.00;97877.81;5037083;28;20033;-39
2023/04/09 02:13:05;;;;;;;14.13;9.23;;;6.10;99.90;;;5.41;100.00;97869.13;5039639;28;20039;-39
2023/04/09 02:15:34;;;;;;;11.60;9.05;;;6.10;99.90;;;5.46;100.00;97867.34;5038783;28;20084;-38
2023/04/09 02:18:00;;;;;;;13.35;9.77;;;6.10;99.90;;;5.45;100.00;97870.81;5038757;28;20051;-39
2023/04/09 02:20:26;;;;;;;12.95;9.48;;;6.10;99.90;;;5.40;100.00;97862.19;5037119;28;20550;-39
2023/04/09 02:22:52;;;;;;;11.55;9.45;;;6.10;99.90;;;5.34;100.00;97859.59;5037266;28;20032;-39
2023/04/09 02:25:18;;;;;;;12.57;9.35;;;6.10;99.90;;;5.37;100.00;97871.81;5037060;28;20025;-39
2023/04/09 02:27:44;;;;;;;13.32;9.55;;;6.00;99.90;;;5.32;100.00;97869.22;5038174;28;20036;-39
2023/04/09 02:30:10;;;;;;;11.75;9.70;;;6.00;99.90;;;5.25;100.00;97857.94;5037171;28;20029;-39
2023/04/09 02:32:36;;;;;;;11.93;9.23;;;5.90;99.90;;;5.26;100.00;97866.66;5041582;28;20029;-39
2023/04/09 02:35:02;;;;;;;12.75;9.88;;;5.90;99.90;;;5.19;100.00;97864.94;5037543;28;20021;-39
2023/04/09 02:37:28;;;;;;;14.30;9.95;;;5.90;99.90;;;5.14;100.00;97865.00;5038309;28;20159;-38
2023/04/09 02:39:53;;;;;;;16.15;10.93;;;5.80;99.90;;;5.09;100.00;97862.41;5052063;22;20373;-46
2023/04/09 02:42:19;;;;;;;13.57;9.70;;;5.80;99.90;;;5.06;100.00;97865.06;5023727;28;20037;-48
2023/04/09 02:44:45;;;;;;;12.43;9.77;;;5.70;99.90;;;5.00;100.00;97856.41;5024418;28;20029;-48
2023/04/09 02:47:11;;;;;;;13.45;10.18;;;5.70;99.90;;;4.91;100.00;97857.31;5022230;28;20033;-49
2023/04/09 02:49:36;;;;;;;14.07;10.35;;;5.60;99.90;;;4.88;100.00;97865.19;5020005;28;20029;-46
2023/04/09 02:52:02;;;;;;;13.55;9.73;;;5.60;99.90;;;4.79;100.00;97868.72;5015870;28;20037;-47
2023/04/09 02:54:28;;;;;;;13.18;9.52;;;5.50;99.90;;;4.61;100.00;97847.94;5021146;28;20116;-47
2023/04/09 02:56:53;;;;;;;15.02;9.88;;;5.40;99.90;;;4.69;100.00;97872.28;5017155;28;20030;-46
2023/04/09 02:59:19;;;;;;;14.20;10.25;;;5.40;99.90;;;4.64;100.00;97874.06;5018949;28;20025;-46
2023/04/09 03:01:45;;;;;;;13.82;9.80;;;5.30;99.90;;;4.62;100.00;97863.63;5017397;28;20029;-47
2023/04/09 03:04:10;;;;;;;12.75;9.70;;;5.30;99.90;;;4.59;100.00;97864.50;5017654;28;20503;-46
2023/04/09 03:06:36;;;;;;;14.20;9.60;;;5.30;99.90;;;4.54;100.00;97858.44;5020696;28;20045;-46
2023/04/09 03:09:02;;;;;;;15.35;10.98;;;5.30;99.90;;;4.53;100.00;97861.91;5018793;28;20473;-46
2023/04/09 03:11:27;;;;;;;14.63;10.75;;;5.30;99.90;;;4.54;100.00;97858.44;5019866;28;20030;-46
2023/04/09 03:13:53;;;;;;;12.85;9.95;;;5.20;99.90;;;4.53;100.00;97858.44;5018174;28;20725;-47
2023/04/09 03:16:19;;;;;;;13.40;10.23;;;5.20;99.90;;;4.53;100.00;97861.91;5030130;28;20038;-46
2023/04/09 03:18:45;;;;;;;14.75;10.40;;;5.20;99.90;;;4.53;100.00;97858.44;5016073;28;20026;-48
2023/04/09 03:21:10;;;;;;;15.55;11.20;;;5.20;99.90;;;4.55;100.00;97856.69;5017669;28;20034;-45
2023/04/09 03:23:36;;;;;;;15.55;10.55;;;5.20;99.90;;;4.57;100.00;97852.31;5018314;28;20348;-45
2023/04/09 03:26:04;;;;;;;14.00;9.98;;;5.20;99.90;;;4.59;100.00;97856.69;5017800;28;20029;-46
2023/04/09 03:28:30;;;;;;;15.15;10.00;;;5.20;99.90;;;4.61;100.00;97840.97;5015258;28;20108;-46
2023/04/09 03:30:56;;;;;;;15.77;9.82;;;5.30;99.90;;;4.67;100.00;97854.00;5017830;28;20560;-45
2023/04/09 03:33:21;;;;;;;13.50;10.98;;;5.30;99.90;;;4.71;100.00;97853.09;5018807;28;20029;-46
2023/04/09 03:35:47;;;;;;;12.48;9.95;;;5.30;99.90;;;4.74;100.00;97845.25;5021933;28;20487;-46
2023/04/09 03:38:13;;;;;;;13.70;10.07;;;5.40;99.90;;;4.78;100.00;97846.94;5021859;28;20049;-46
2023/04/09 03:40:40;;;;;;;13.50;11.18;;;5.40;99.90;;;4.76;100.00;97853.94;5022850;28;20025;-48
2023/04/09 03:43:06;;;;;;;14.18;10.57;;;5.50;99.90;;;4.81;100.00;97850.41;5020550;28;20052;-46
2023/04/09 03:45:31;;;;;;;15.45;10.48;;;5.50;99.90;;;4.82;100.00;97849.56;5023956;28;20467;-48
2023/04/09 03:47:57;;;;;;;13.90;9.57;;;5.50;99.90;;;4.81;100.00;97855.66;5023638;28;20041;-48
2023/04/09 03:50:23;;;;;;;13.32;9.90;;;5.50;99.90;;;4.80;100.00;97853.94;5022582;28;20091;-46
2023/04/09 03:52:48;;;;;;;13.07;10.05;;;5.50;99.90;;;4.77;100.00;97842.63;5023268;28;20265;-49
2023/04/09 03:55:14;;;;;;;14.70;10.43;;;5.50;99.90;;;4.78;100.00;97846.09;5019400;28;20041;-49
2023/04/09 03:57:40;;;;;;;12.23;9.65;;;5.40;99.90;;;4.76;100.00;97845.25;5021425;28;20034;-49
2023/04/09 04:00:06;;;;;;;13.70;10.15;;;5.40;99.90;;;4.74;100.00;97850.47;5020988;28;20127;-48
2023/04/09 04:02:32;;;;;;;13.95;10.63;;;5.40;99.90;;;4.71;100.00;97855.72;5005035;28;20083;-46
2023/04/09 04:04:59;;;;;;;14.35;10.70;;;5.40;99.90;;;4.70;100.00;97854.00;5002089;28;20045;-49
2023/04/09 04:07:24;;;;;;;13.13;9.98;;;5.40;99.90;;;4.68;100.00;97847.88;5022908;28;20033;-49
2023/04/09 04:09:50;;;;;;;13.18;9.68;;;5.40;99.90;;;4.68;100.00;97853.09;5022199;28;20045;-49
2023/04/09 04:12:16;;;;;;;14.27;10.02;;;5.40;99.90;;;4.67;100.00;97848.78;5022123;28;20707;-49
2023/04/09 04:14:42;;;;;;;12.70;9.95;;;5.30;99.90;;;4.68;100.00;97854.88;5021575;28;20473;-50
2023/04/09 04:17:07;;;;;;;13.93;10.57;;;5.40;99.90;;;4.58;100.00;97835.78;5022375;28;20033;-49
2023/04/09 04:19:33;;;;;;;12.45;10.30;;;5.40;99.90;;;4.67;100.00;97853.16;5023220;28;20595;-50
2023/04/09 04:21:59;;;;;;;13.50;10.55;;;5.40;99.90;;;4.64;100.00;97854.00;5020097;28;20034;-49
2023/04/09 04:24:24;;;;;;;14.38;10.50;;;5.30;99.90;;;4.61;100.00;97855.78;5037368;28;20408;-48
2023/04/09 04:26:50;;;;;;;14.80;11.80;;;5.30;99.90;;;4.58;100.00;97857.53;5021430;28;20091;-49
2023/04/09 04:29:16;;;;;;;13.98;10.20;;;5.30;99.90;;;4.59;100.00;97863.63;5020970;28;20032;-50
2023/04/09 04:31:42;;;;;;;15.05;10.65;;;5.30;99.90;;;4.59;100.00;97859.28;5021990;28;20036;-48
2023/04/09 04:34:07;;;;;;;12.63;10.15;;;5.30;99.90;;;4.60;100.00;97867.97;5020128;28;20070;-48
2023/04/09 04:36:33;;;;;;;15.02;10.38;;;5.30;99.90;;;4.59;100.00;97867.13;5023283;28;20488;-49
2023/04/09 04:38:59;;;;;;;13.10;10.15;;;5.30;99.90;;;4.60;100.00;97865.38;5019696;28;20033;-49
2023/04/09 04:41:24;;;;;;;14.70;10.73;;;5.30;99.90;;;4.60;100.00;97862.75;5020874;28;20033;-50
2023/04/09 04:43:50;;;;;;;14.52;10.65;;;5.30;99.90;;;4.58;100.00;97861.91;5019937;28;20030;-49
2023/04/09 04:46:16;;;;;;;14.80;10.55;;;5.30;99.90;;;4.59;100.00;97871.47;5021800;28;20030;-47
2023/04/09 04:48:41;;;;;;;15.10;11.23;;;5.30;99.90;;;4.56;100.00;97861.91;5022525;28;20493;-50
2023/04/09 04:51:07;;;;;;;14.18;10.73;;;5.30;99.90;;;4.56;100.00;97867.13;5019641;28;20021;-50
2023/04/09 04:53:33;;;;;;;16.40;10.57;;;5.20;99.90;;;4.56;100.00;97871.50;5024548;28;20075;-49
2023/04/09 04:55:58;;;;;;;13.90;10.50;;;5.20;99.90;;;4.58;100.00;97867.13;5017366;28;20033;-46
2023/04/09 04:58:25;;;;;;;14.05;10.73;;;5.30;99.90;;;4.59;100.00;97871.47;5020751;28;20061;-50
2023/04/09 05:00:50;;;;;;;15.07;10.50;;;5.30;99.90;;;4.61;100.00;97867.09;5018695;28;20512;-48
2023/04/09 05:03:16;;;;;;;14.73;11.48;;;5.30;99.90;;;4.66;100.00;97865.31;5020230;28;20025;-50
2023/04/09 05:05:42;;;;;;;16.67;11.00;;;5.30;99.90;;;4.59;100.00;97864.50;5021566;28;20106;-45
2023/04/09 05:08:07;;;;;;;13.32;10.25;;;5.30;99.90;;;4.63;100.00;97870.59;5022160;28;20044;-45
2023/04/09 05:10:33;;;;;;;15.30;10.70;;;5.30;99.90;;;4.70;100.00;97871.41;5020933;28;20137;-46
2023/04/09 05:12:59;;;;;;;15.23;10.55;;;5.40;99.90;;;4.69;100.00;97873.16;5020444;28;20072;-50
2023/04/09 05:15:25;;;;;;;15.30;10.70;;;5.40;99.90;;;4.75;100.00;97872.25;5021486;28;20056;-45
2023/04/09 05:17:50;;;;;;;15.38;11.73;;;5.40;99.90;;;4.76;100.00;97863.53;5021114;28;20374;-45
2023/04/09 05:20:16;;;;;;;16.00;11.85;;;5.40;99.90;;;4.82;100.00;97879.16;5018114;28;20033;-45
2023/04/09 05:22:42;;;;;;;18.00;12.05;;;5.50;99.90;;;4.82;100.00;97868.72;5021131;28;20041;-49
2023/04/09 05:25:09;;;;;;;14.45;11.60;;;5.50;99.90;;;4.87;100.00;97877.41;5020282;28;20026;-45
2023/04/09 05:27:34;;;;;;;15.20;11.10;;;5.50;99.90;;;4.91;100.00;97871.25;5020136;28;20044;-46
2023/04/09 05:30:00;;;;;;;12.80;10.68;;;5.60;99.90;;;4.97;100.00;97875.56;5019564;28;20029;-47
2023/04/09 05:32:26;;;;;;;16.60;11.85;;;5.60;99.90;;;4.97;100.00;97871.22;5019422;28;20658;-45
2023/04/09 05:34:52;;;;;;;13.10;10.43;;;5.70;99.90;;;5.09;100.00;97877.25;5019115;28;20095;-48
2023/04/09 05:37:17;;;;;;;14.10;10.98;;;5.70;99.90;;;5.13;100.00;97874.59;5018977;28;20040;-46
2023/04/09 05:39:43;;;;;;;14.38;10.57;;;5.80;99.90;;;5.26;100.00;97885.84;5020669;28;20029;-45
2023/04/09 05:42:09;;;;;;;17.38;11.73;;;5.90;99.90;;;5.37;100.00;97887.50;5019861;28;20045;-47
2023/04/09 05:44:35;;;;;;;18.15;12.18;;;6.00;99.90;;;5.41;100.00;97891.81;5017684;28;20029;-47
2023/04/09 05:47:00;;;;;;;17.02;11.88;;;6.00;99.90;;;5.43;100.00;97887.44;5021490;28;20096;-47
2023/04/09 05:49:26;;;;;;;14.02;10.63;;;6.10;99.90;;;5.47;100.00;97884.78;5020419;28;20034;-45
2023/04/09 05:51:52;;;;;;;15.20;11.40;;;6.10;99.90;;;5.51;100.00;97886.50;5016180;28;20034;-46
2023/04/09 05:54:17;;;;;;;16.27;11.45;;;6.20;99.90;;;5.53;100.00;97889.97;5020823;28;20323;-45
2023/04/09 05:56:43;;;;;;;13.77;10.25;;;6.20;99.90;;;5.63;100.00;97887.25;5020177;28;20115;-45
2023/04/09 05:59:09;;;;;;;14.50;9.95;;;6.20;99.90;;;5.70;100.00;97891.53;5020264;28;20038;-45
2023/04/09 06:01:35;;;;;;;15.38;11.30;;;6.30;99.90;;;5.70;100.00;97878.47;5017404;28;20060;-46
2023/04/09 06:04:00;;;;;;;17.77;12.05;;;6.40;99.90;;;5.74;100.00;97885.38;5017785;28;20025;-45
2023/04/09 06:06:26;;;;;;;16.85;12.30;;;6.40;99.90;;;5.78;100.00;97889.72;5019957;28;20052;-48
2023/04/09 06:08:52;;;;;;;16.05;12.30;;;6.40;99.90;;;5.93;100.00;97894.78;5019979;28;20641;-46
2023/04/09 06:11:17;;;;;;;15.30;11.70;;;6.60;99.90;;;6.13;100.00;97896.38;5021267;28;20488;-46
2023/04/09 06:13:43;;;;;;;15.32;11.15;;;6.70;99.90;;;6.38;100.00;97890.84;5018169;28;20030;-45
2023/04/09 06:16:09;;;;;;;16.83;11.60;;;7.00;99.90;;;6.56;100.00;97890.59;5018646;28;20544;-48
2023/04/09 06:18:35;;;;;;;14.50;10.90;;;7.20;99.90;;;6.82;100.00;97892.00;5021218;28;20018;-48
2023/04/09 06:21:06;;;;;;;14.45;11.02;;;7.40;99.90;;;7.08;100.00;97894.25;5018683;28;20040;-46
2023/04/09 06:23:34;;;;;;;11.07;7.70;;;7.60;99.90;;;7.13;100.00;97894.19;5002035;28;20017;-49
2023/04/09 06:26:00;;;;;;;11.75;8.48;;;7.70;99.90;;;7.11;100.00;97893.34;5019491;28;20116;-45
2023/04/09 06:28:28;;;;;;;14.93;9.73;;;7.70;99.90;;;6.88;100.00;97879.69;5018914;28;20047;-46
2023/04/09 06:30:54;;;;;;;12.55;9.18;;;7.60;99.90;;;6.81;100.00;97883.28;5017997;28;20060;-47
2023/04/09 06:33:20;;;;;;;12.18;8.55;;;7.50;99.90;;;6.72;100.00;97885.16;5018454;28;20511;-45
2023/04/09 06:35:46;;;;;;;14.73;10.32;;;7.40;99.90;;;6.64;100.00;97891.38;5019988;28;20510;-45
2023/04/09 06:38:12;;;;;;;16.25;11.60;;;7.30;99.90;;;6.54;100.00;97894.16;5019560;28;20048;-45
2023/04/09 06:40:38;;;;;;;15.38;10.43;;;7.30;99.90;;;6.53;100.00;97897.63;5018014;28;20029;-47
2023/04/09 06:43:04;;;;;;;14.55;10.63;;;7.20;99.90;;;6.49;100.00;97902.06;5017706;28;20115;-45
2023/04/09 06:45:31;;;;;;;12.23;9.90;;;7.20;99.90;;;6.47;100.00;97898.59;5021772;28;20156;-45
2023/04/09 06:47:57;;;;;;;16.27;11.40;;;7.20;99.90;;;6.45;100.00;97895.13;5021730;28;21840;-46
2023/04/09 06:50:23;;;;;;;14.57;10.77;;;7.10;99.90;;;6.42;100.00;97898.63;5019021;28;20558;-46
2023/04/09 06:52:50;;;;;;;13.27;10.05;;;7.10;99.90;;;6.46;100.00;97902.97;5019684;28;20037;-47
2023/04/09 06:55:16;;;;;;;14.07;9.27;;;7.10;99.90;;;6.50;100.00;97902.03;5017724;28;20037;-46
2023/04/09 06:57:42;;;;;;;13.00;9.63;;;7.20;99.90;;;6.55;100.00;97909.84;5017710;28;20111;-45
2023/04/09 07:00:08;;;;;;;16.17;12.10;;;7.20;99.90;;;6.76;100.00;97905.19;5010022;28;20025;-49
2023/04/09 07:02:35;;;;;;;14.48;10.73;;;7.20;99.90;;;6.76;100.00;97907.81;5018802;28;20021;-49
2023/04/09 07:05:02;;;;;;;16.02;10.05;;;7.40;99.90;;;6.75;100.00;97901.72;5018076;28;20393;-46
2023/04/09 07:07:27;;;;;;;16.38;11.63;;;7.40;99.90;;;6.79;100.00;97907.78;5019836;28;20496;-48
2023/04/09 07:09:53;;;;;;;15.40;10.32;;;7.40;99.90;;;6.75;100.00;97892.97;5020469;28;20096;-47
2023/04/09 07:12:30;;;;;;;14.45;11.00;;;7.50;99.90;;;6.90;100.00;97915.50;5022882;28;20033;-46
2023/04/09 07:15:00;;;;;;;13.40;9.77;;;7.50;99.90;;;6.90;100.00;97905.88;5022013;28;20025;-49
2023/04/09 07:17:26;;;;;;;15.27;10.25;;;7.50;99.90;;;6.91;100.00;97902.38;5023030;28;20091;-48
2023/04/09 07:19:53;;;;;;;17.00;11.02;;;7.50;99.90;;;6.93;100.00;97902.31;5025044;28;20025;-50
2023/04/09 07:22:21;;;;;;;14.00;9.23;;;7.60;99.90;;;6.99;100.00;97908.38;5023809;28;20153;-49
2023/04/09 07:24:52;;;;;;;13.93;9.98;;;7.60;99.90;;;7.07;100.00;97921.38;5021975;28;20504;-49
2023/04/09 07:27:20;;;;;;;15.82;10.70;;;7.70;99.90;;;7.11;100.00;97903.84;5022095;28;20477;-46
2023/04/09 07:29:45;;;;;;;12.57;9.55;;;7.80;99.90;;;7.18;100.00;97915.97;5022623;28;20038;-45
2023/04/09 07:32:11;;;;;;;16.15;9.85;;;7.80;99.90;;;7.25;100.00;97907.13;5021703;28;20389;-46
2023/04/09 07:34:37;;;;;;;13.90;9.60;;;7.90;99.90;;;7.42;100.00;97909.47;5022134;28;20033;-45
2023/04/09 07:37:03;;;;;;;14.30;9.63;;;8.00;99.90;;;7.48;100.00;97916.38;5023510;28;20041;-48
2023/04/09 07:39:29;;;;;;;12.05;8.82;;;8.10;99.90;;;7.56;100.00;97915.34;5022251;28;20025;-45
2023/04/09 07:41:56;;;;;;;11.32;9.02;;;8.20;99.90;;;7.70;100.00;97915.13;5020238;28;20034;-45
2023/04/09 07:44:22;;;;;;;12.00;8.98;;;8.30;99.90;;;7.77;100.00;97919.38;5023650;28;20122;-46
2023/04/09 07:46:47;;;;;;;11.43;7.97;;;8.40;99.90;;;7.95;100.00;97912.94;5024514;28;20041;-46
2023/04/09 07:49:13;;;;;;;9.85;7.20;;;8.50;99.90;;;8.03;100.00;97921.53;5024328;28;20042;-48
2023/04/09 07:51:39;;;;;;;10.35;7.28;;;8.60;99.90;;;8.17;98.36;97929.16;5021191;28;20053;-45
2023/04/09 07:54:05;;;;;;;8.48;6.57;;;8.80;99.90;;;8.35;93.20;97940.22;5020567;28;20036;-49
2023/04/09 07:56:30;;;;;;;11.40;7.00;;;8.90;99.90;;;8.35;95.28;97940.22;5020494;28;20030;-44
2023/04/09 07:58:56;;;;;;;9.02;6.15;;;8.90;99.90;;;8.33;97.43;97939.38;5021187;28;20075;-45
2023/04/09 08:01:23;;;;;;;12.98;8.50;;;8.90;99.90;;;8.39;100.00;97942.75;5021272;28;20453;-46
2023/04/09 08:03:49;;;;;;;9.88;7.82;;;8.90;99.90;;;8.51;100.00;97946.09;5020768;28;20037;-45
2023/04/09 08:06:15;;;;;;;10.95;7.88;;;9.10;99.90;;;8.79;100.00;97938.47;5022175;28;20036;-46
2023/04/09 08:08:42;;;;;;;9.98;7.70;;;9.40;99.90;;;9.15;100.00;97943.81;5021741;28;20029;-48
2023/04/09 08:11:08;;;;;;;10.13;7.95;;;9.80;99.90;;;9.54;96.83;97942.03;5020943;28;20049;-49
2023/04/09 08:13:33;;;;;;;11.30;7.85;;;10.20;99.90;;;9.82;86.69;97920.28;5019443;28;20033;-50
2023/04/09 08:16:00;;;;;;;10.32;7.40;;;10.60;99.90;;;10.07;84.70;97946.00;5022375;28;20104;-49
2023/04/09 08:18:27;;;;;;;8.50;7.05;;;10.70;99.90;;;10.02;80.31;97945.25;5022140;28;20469;-49
2023/04/09 08:20:53;;;;;;;11.77;7.45;;;10.70;99.90;;;9.86;83.03;97936.88;5018071;28;20346;-49
2023/04/09 08:23:18;;;;;;;9.00;6.85;;;10.50;99.90;;;9.75;82.03;97939.78;5021768;28;20447;-49
2023/04/09 08:25:44;;;;;;;9.02;6.80;;;10.30;99.90;;;9.49;84.02;97932.50;5021148;28;20030;-49
2023/04/09 08:28:10;;;;;;;13.30;7.28;;;10.10;99.90;;;9.40;86.13;97935.38;5022563;28;20068;-49
2023/04/09 08:30:35;;;;;;;9.65;7.25;;;10.10;99.90;;;9.44;86.69;97929.13;5019614;28;20041;-46
2023/04/09 08:33:01;;;;;;;9.88;6.78;;;10.10;99.90;;;9.44;87.12;97942.28;5022150;28;20647;-49
2023/04/09 08:35:29;;;;;;;9.07;6.50;;;10.00;99.90;;;9.33;88.20;97935.53;5022424;28;20045;-50
2023/04/09 08:37:55;;;;;;;8.48;6.38;;;9.90;99.90;;;9.47;86.90;97942.22;5019444;28;20030;-49
2023/04/09 08:40:22;;;;;;;8.07;6.32;;;10.00;99.90;;;9.35;81.79;97915.28;5038662;22;20053;-38
2023/04/09 08:42:56;;;;;;;8.02;6.40;;;10.10;99.90;;;9.60;86.46;97943.69;5040170;28;20044;-38
2023/04/09 08:45:22;;;;;;;8.27;6.00;;;10.20;99.90;;;9.84;80.00;97936.91;5043531;28;20025;-38
2023/04/09 08:47:50;;;;;;;8.48;6.50;;;10.40;99.90;;;10.09;82.46;97941.56;5044214;28;20037;-38
2023/04/09 08:50:16;;;;;;;8.68;6.35;;;10.60;99.90;;;10.39;79.42;97945.19;5041989;28;20115;-37
2023/04/09 08:52:45;;;;;;;8.68;6.68;;;10.90;99.90;;;10.25;73.42;97939.38;5038481;28;20029;-38
2023/04/09 08:55:11;;;;;;;9.02;5.80;;;11.00;99.90;;;10.32;74.88;97949.75;5040780;28;20040;-38
2023/04/09 08:57:40;;;;;;;7.93;6.63;;;10.90;99.90;;;10.33;73.29;97947.97;5040118;28;20485;-38
2023/04/09 09:00:07;;;;;;;8.75;6.22;;;10.90;99.90;;;10.29;70.83;97941.03;5040551;28;20033;-38
2023/04/09 09:02:33;;;;;;;8.73;6.93;;;10.90;99.90;;;10.49;76.58;97957.19;5039716;28;20156;-38
2023/04/09 09:05:01;;;;;;;10.05;6.93;;;11.00;99.90;;;10.94;72.64;97949.78;5039558;28;20480;-38
2023/04/09 09:07:29;;;;;;;7.93;6.18;;;11.40;99.90;;;11.25;69.69;97961.16;5037399;28;20024;-38
2023/04/09 09:09:58;;;;;;;7.78;6.55;;;11.80;99.90;;;11.27;66.28;97963.75;5042662;28;20043;-38
2023/04/09 09:12:37;;;;;;;9.20;6.57;;;11.90;99.90;;;11.19;64.83;97956.03;5042769;28;20029;-38
2023/04/09 09:15:05;;;;;;;9.52;6.60;;;11.90;99.90;;;11.17;64.55;97962.28;5041058;28;20086;-38
2023/04/09 09:17:31;;;;;;;7.90;6.15;;;11.70;99.90;;;11.25;64.28;97954.97;5038177;28;20082;-38
2023/04/09 09:19:57;;;;;;;6.40;5.57;;;11.60;99.90;;;11.12;65.82;97954.50;5036654;28;20025;-38
2023/04/09 09:22:24;;;;;;;8.30;6.30;;;11.70;99.90;;;11.02;65.21;97956.56;5041068;28;20167;-38
2023/04/09 09:24:51;;;;;;;9.45;6.60;;;11.60;99.90;;;10.92;65.09;97962.16;5040488;28;20437;-38
2023/04/09 09:27:41;;;;;;;9.32;6.32;;;11.50;99.90;;;11.02;66.83;97953.94;5038548;28;20178;-38
2023/04/09 09:30:09;;;;;;;8.43;6.95;;;11.60;99.90;;;11.21;65.11;97961.28;5037043;28;20064;-37
2023/04/09 09:32:36;;;;;;;9.27;6.75;;;11.80;99.90;;;11.37;64.29;97949.31;5038745;28;20417;-37
2023/04/09 09:35:05;;;;;;;8.95;6.28;;;11.90;99.90;;;11.65;61.89;97953.75;5039425;28;20033;-38
2023/04/09 09:37:31;;;;;;;8.60;6.68;;;12.20;99.90;;;11.99;60.77;97953.53;5038026;28;20033;-38
2023/04/09 09:39:58;;;;;;;8.98;6.13;;;12.60;99.90;;;12.48;57.92;97960.69;5040175;28;20516;-38
2023/04/09 09:42:25;;;;;;;7.70;5.78;;;13.00;99.90;;;12.77;56.24;97957.81;5037521;28;20497;-38
2023/04/09 09:44:53;;;;;;;7.32;6.15;;;13.40;99.90;;;12.86;57.21;97967.19;5039460;28;20060;-38
2023/04/09 09:47:19;;;;;;;6.40;5.40;;;13.60;99.90;;;13.11;54.62;97961.00;5037638;28;20029;-38
2023/04/09 09:49:49;;;;;;;7.57;6.10;;;13.70;99.90;;;13.18;54.82;97962.50;5037619;28;20033;-38
2023/04/09 09:52:17;;;;;;;7.10;5.75;;;13.90;99.90;;;13.38;55.48;97961.75;5039207;28;20033;-38
2023/04/09 09:54:51;;;;;;;7.95;5.85;;;14.00;99.90;;;13.48;52.81;97962.25;5043213;28;20615;-38
2023/04/09 09:57:21;;;;;;;7.43;5.65;;;14.20;99.90;;;13.71;50.98;97956.88;5038308;28;20040;-38
2023/04/09 09:59:53;;;;;;;6.90;5.35;;;14.40;99.90;;;13.83;48.32;97957.31;5038897;28;20082;-38
2023/04/09 10:02:22;;;;;;;6.50;5.38;;;14.40;98.70;;;13.66;49.27;97953.56;5039997;28;20439;-38
2023/04/09 10:04:51;;;;;;;7.65;4.93;;;14.30;98.70;;;13.81;49.69;97945.91;5037864;28;20531;-38
2023/04/09 10:07:19;;;;;;;5.65;4.55;;;14.40;99.30;;;13.70;47.34;97951.66;5039954;28;20207;-38
2023/04/09 10:09:49;;;;;;;6.15;4.47;;;14.30;97.40;;;13.69;48.10;97952.56;5040044;28;20191;-38
2023/04/09 10:12:16;;;;;;;7.07;5.18;;;14.30;97.00;;;13.52;49.28;97953.25;5041941;28;20500;-38
2023/04/09 10:14:44;;;;;;;6.32;4.68;;;14.20;97.90;;;13.27;46.38;97958.63;5042060;28;20109;-38
2023/04/09 10:17:10;;;;;;;6.25;4.60;;;14.00;95.90;;;13.03;48.47;97955.13;5041608;28;20063;-38
2023/04/09 10:19:44;;;;;;;7.68;4.70;;;13.80;96.50;;;12.99;46.65;97957.91;5036302;28;20023;-38